Rye, Texas
Current Conditions -  °F | °C
As of 9:53 PM on Sunday 23 Nov 2014 (Local Time) from KCXO Reporting Station
Clear Clear  
Wind Chill: 64°   Ceiling: Unl
Heat Index: 64°   Visibility: 10mi
Dew Point: 55°   Wind: 5mph
Humidity: 72%   Direction: 210°SSW
Pressure: 29.67"   Gusts: NA
Location:  30.45°N, 94.77°W
Report Text: KCXO 240353Z 21004KT 10SM CLR 18/13 A2967 RMK AO2 SLP045 T01780128
Loading
Personal Weather Stations






























Interactive Weather Map New forecast layout! Learn more

10-Day Weather Forecast

Advertisements
Track Severe Weather on mobile